Time;durP1;ratioP1;P1;durP2;ratioP2;P2;SDS_P1;SDS_P2;PMS_P1;PMS_P2;Temp;Humidity;BMP_temperature;BMP_pressure;BME280_temperature;BME280_humidity;BME280_pressure;Samples;Min_cycle;Max_cycle;Signal;HPM_P1;HPM_P2
2023/03/09 00:01:27;;;;;;;;;1.00;0.00;;;;;12.16;77.30;99118.09;4908202;29;45622;-69
2023/03/09 00:03:53;;;;;;;;;0.00;0.00;;;;;11.98;77.60;99091.59;4907885;29;46482;-69
2023/03/09 00:06:21;;;;;;;;;0.25;0.00;;;;;12.09;77.03;99114.97;4908029;29;45519;-69
2023/03/09 00:08:47;;;;;;;;;0.00;0.00;;;;;12.04;77.01;99114.41;4907830;29;45526;-69
2023/03/09 00:11:16;;;;;;;;;2.00;0.00;;;;;12.00;77.09;99118.25;4890898;29;45412;-69
2023/03/09 00:13:43;;;;;;;;;1.00;1.00;;;;;11.98;77.36;99120.19;4907622;29;45569;-69
2023/03/09 00:16:15;;;;;;;;;1.50;0.75;;;;;11.97;76.72;99119.28;4908059;29;45503;-69
2023/03/09 00:18:44;;;;;;;;;1.25;1.00;;;;;11.91;77.01;99119.72;4907935;29;45289;-69
2023/03/09 00:21:34;;;;;;;;;0.00;0.00;;;;;12.03;76.83;99137.63;4894136;29;45415;-69
2023/03/09 00:24:06;;;;;;;;;1.25;0.00;;;;;11.91;77.06;99134.84;4885729;29;45893;-69
2023/03/09 00:26:36;;;;;;;;;0.00;0.00;;;;;11.90;76.68;99143.84;4899254;29;45396;-69
2023/03/09 00:29:05;;;;;;;;;0.50;0.50;;;;;11.91;76.68;99146.44;4887686;29;45416;-69
2023/03/09 00:31:30;;;;;;;;;1.00;0.00;;;;;11.73;76.84;99119.03;4904495;29;45423;-69
2023/03/09 00:33:56;;;;;;;;;0.25;0.25;;;;;12.04;76.63;99189.28;4904410;29;46460;-69
2023/03/09 00:36:23;;;;;;;;;1.00;1.00;;;;;12.09;76.46;99187.19;4904398;29;45946;-69
2023/03/09 00:39:00;;;;;;;;;0.00;0.00;;;;;11.93;76.33;99181.09;4904486;29;45436;-69
2023/03/09 00:41:30;;;;;;;;;1.75;1.00;;;;;12.05;76.82;99199.91;4904380;29;45350;-69
2023/03/09 00:43:56;;;;;;;;;0.00;0.00;;;;;11.99;76.10;99194.06;4887155;29;48064;-69
2023/03/09 00:46:26;;;;;;;;;2.00;0.00;;;;;12.01;76.32;99190.38;4904189;29;45387;-69
2023/03/09 00:48:54;;;;;;;;;0.00;0.00;;;;;12.09;76.71;99207.72;4904531;29;45568;-70
2023/03/09 00:51:23;;;;;;;;;0.00;0.00;;;;;11.97;75.94;99188.81;4904432;29;45543;-69
2023/03/09 00:53:50;;;;;;;;;0.50;0.50;;;;;11.82;75.94;99169.22;4886484;29;46897;-69
2023/03/09 00:56:19;;;;;;;;;0.00;0.00;;;;;11.91;75.97;99204.34;4904212;29;45292;-69
2023/03/09 00:58:48;;;;;;;;;0.00;0.00;;;;;11.92;75.55;99208.78;4904167;29;45411;-69
2023/03/09 01:01:17;;;;;;;;;0.25;0.25;;;;;11.78;75.64;99178.41;4904377;29;45444;-69
2023/03/09 01:03:46;;;;;;;;;0.00;0.00;;;;;11.63;75.90;99174.00;4903954;29;46348;-69
2023/03/09 01:06:15;;;;;;;;;3.00;0.00;;;;;11.72;75.76;99186.78;4904142;29;45695;-69
2023/03/09 01:08:50;;;;;;;;;0.00;0.00;;;;;11.74;76.07;99189.38;4903693;29;45317;-69
2023/03/09 01:11:19;;;;;;;;;1.00;0.00;;;;;11.67;76.26;99186.22;4904235;29;45324;-69
2023/03/09 01:13:48;;;;;;;;;1.00;0.00;;;;;11.48;76.17;99167.78;4903543;29;45625;-69
2023/03/09 01:16:14;;;;;;;;;0.75;0.50;;;;;11.78;76.03;99213.16;4903925;29;45323;-69
2023/03/09 01:18:40;;;;;;;;;0.50;0.00;;;;;11.71;75.69;99202.91;4903908;29;45388;-69
2023/03/09 01:21:06;;;;;;;;;0.50;0.00;;;;;11.59;75.86;99193.84;4877179;29;45427;-69
2023/03/09 01:23:36;;;;;;;;;0.00;0.00;;;;;11.55;75.39;99186.97;4884588;29;46405;-69
2023/03/09 01:26:07;;;;;;;;;0.00;0.00;;;;;11.75;75.98;99223.19;4894907;29;45500;-69
2023/03/09 01:28:35;;;;;;;;;0.00;0.00;;;;;11.59;75.87;99199.19;4903839;29;45377;-69
2023/03/09 01:31:09;;;;;;;;;1.00;0.00;;;;;11.81;75.76;99250.41;4903688;29;45440;-69
2023/03/09 01:33:37;;;;;;;;;3.25;0.50;;;;;11.62;75.96;99215.03;4918181;28;45539;-69
2023/03/09 01:36:05;;;;;;;;;0.50;0.50;;;;;11.85;76.05;99251.06;4897031;28;45396;-69
2023/03/09 01:38:34;;;;;;;;;0.00;0.00;;;;;11.59;75.99;99229.44;4886547;29;45293;-69
2023/03/09 01:41:01;;;;;;;;;0.75;0.75;;;;;11.58;75.78;99230.41;4903454;28;45553;-69
2023/03/09 01:43:58;;;;;;;;;1.00;0.00;;;;;11.81;76.05;99276.25;4907006;28;45419;-69
2023/03/09 01:46:48;;;;;;;;;3.00;1.00;;;;;11.61;75.54;99256.97;4921238;28;45507;-69
2023/03/09 01:49:27;;;;;;;;;1.50;0.25;;;;;11.80;75.35;99282.56;4922531;28;45615;-69
2023/03/09 01:52:13;;;;;;;;;1.50;0.00;;;;;11.79;75.51;99284.34;4922568;28;45512;-69
2023/03/09 01:54:47;;;;;;;;;1.00;0.00;;;;;11.64;75.22;99258.56;4905175;28;48331;-69
2023/03/09 01:57:42;;;;;;;;;0.00;0.00;;;;;11.72;75.73;99279.50;4905039;28;45709;-69
2023/03/09 02:00:18;;;;;;;;;0.50;0.00;;;;;11.53;75.86;99259.22;4905296;28;45490;-69
2023/03/09 02:03:00;;;;;;;;;;;;;;;;;;;;;
2023/03/09 02:05:54;;;;;;;;;1.00;1.00;;;;;11.70;75.58;99292.09;4902048;28;75733;-69
2023/03/09 02:08:25;;;;;;;;;0.00;0.00;;;;;11.56;75.51;99271.53;4885717;29;46428;-69
2023/03/09 02:11:07;;;;;;;;;2.75;0.00;;;;;11.57;75.60;99270.59;4886128;29;45692;-69
2023/03/09 02:13:59;;;;;;;;;;;;;;;;;;;;;
2023/03/09 02:16:25;;;;;;;;;1.00;1.00;;;;;11.44;75.76;99268.66;4901921;29;74528;-69
2023/03/09 02:18:50;;;;;;;;;1.00;1.00;;;;;11.63;75.99;99294.28;4885853;29;45435;-69
2023/03/09 02:21:55;;;;;;;;;2.75;2.00;;;;;11.65;75.91;99300.38;4914135;28;45574;-69
2023/03/09 02:24:38;;;;;;;;;2.00;0.00;;;;;11.60;76.07;99291.78;4825736;29;45486;-69
2023/03/09 02:27:23;;;;;;;;;4.50;0.00;;;;;11.45;75.81;99273.03;4825364;29;47225;-69
2023/03/09 02:29:48;;;;;;;;;2.00;1.00;;;;;11.40;76.13;99266.25;4880028;28;45610;-69
2023/03/09 02:32:15;;;;;;;;;1.00;1.00;;;;;11.49;76.36;99290.63;4904773;28;45609;-69
2023/03/09 02:34:42;;;;;;;;;1.75;0.75;;;;;11.24;76.21;99250.25;4914246;28;45544;-69
2023/03/09 02:37:37;;;;;;;;;1.00;1.00;;;;;11.64;76.49;99323.59;4902646;29;46795;-69
2023/03/09 02:40:41;;;;;;;;;3.50;2.25;;;;;11.30;76.54;99265.94;4885624;29;45477;-69
2023/03/09 02:43:10;;;;;;;;;1.00;0.00;;;;;11.36;76.43;99286.97;4872398;28;45414;-69
2023/03/09 02:45:48;;;;;;;;;;;;;;;;;;;;;
2023/03/09 02:48:16;;;;;;;;;1.75;0.00;;;;;11.53;76.76;99318.03;4920708;28;75241;-69
2023/03/09 02:50:42;;;;;;;;;1.00;1.00;;;;;11.69;76.88;99334.00;4921582;28;45393;-69
2023/03/09 02:53:15;;;;;;;;;1.00;1.00;;;;;11.44;76.89;99295.38;4921615;28;45466;-69
2023/03/09 02:55:41;;;;;;;;;2.00;0.75;;;;;11.24;76.67;99271.63;4921588;28;45362;-69
2023/03/09 02:58:06;;;;;;;;;1.00;1.00;;;;;11.44;76.38;99303.41;4921454;28;45730;-69
2023/03/09 03:00:32;;;;;;;;;2.00;1.50;;;;;11.40;76.42;99293.81;4904144;28;45455;-69
2023/03/09 03:02:59;;;;;;;;;1.50;0.00;;;;;11.67;76.74;99333.22;4904469;28;45380;-69
2023/03/09 03:05:28;;;;;;;;;1.50;0.75;;;;;11.46;76.71;99308.63;4904213;28;45515;-69
2023/03/09 03:07:56;;;;;;;;;3.00;2.00;;;;;11.66;76.56;99331.50;4921041;28;46500;-69
2023/03/09 03:10:24;;;;;;;;;0.00;0.00;;;;;11.41;76.48;99310.72;4904187;28;45659;-69
2023/03/09 03:12:49;;;;;;;;;0.00;0.00;;;;;11.59;76.91;99336.34;4904261;28;45538;-69
2023/03/09 03:15:15;;;;;;;;;2.00;0.00;;;;;11.45;76.67;99314.94;4921184;28;45601;-69
2023/03/09 03:17:43;;;;;;;;;1.00;1.00;;;;;11.48;76.68;99312.09;4921287;28;46275;-69
2023/03/09 03:20:14;;;;;;;;;3.00;1.00;;;;;11.54;76.63;99334.91;4918935;28;45521;-69
2023/03/09 03:22:41;;;;;;;;;1.50;0.50;;;;;11.48;76.98;99334.31;4902142;29;45614;-69
2023/03/09 03:25:10;;;;;;;;;2.75;1.00;;;;;11.65;76.61;99362.72;4902083;29;45308;-69
2023/03/09 03:27:38;;;;;;;;;2.25;1.00;;;;;11.57;76.46;99345.41;4884783;29;46275;-69
2023/03/09 03:30:11;;;;;;;;;3.50;1.00;;;;;11.63;76.97;99358.44;4902119;29;45640;-69
2023/03/09 03:32:37;;;;;;;;;0.00;0.00;;;;;11.63;76.89;99364.63;4890551;29;45468;-69
2023/03/09 03:35:08;;;;;;;;;1.25;0.75;;;;;11.52;76.77;99350.19;4901706;29;45472;-69
2023/03/09 03:37:36;;;;;;;;;1.50;1.50;;;;;11.53;76.97;99350.09;4901787;29;46398;-69
2023/03/09 03:40:06;;;;;;;;;4.75;1.50;;;;;11.41;76.94;99322.28;4885050;29;45754;-69
2023/03/09 03:42:36;;;;;;;;;2.75;0.25;;;;;11.73;77.05;99381.00;4884859;29;45364;-69
2023/03/09 03:45:13;;;;;;;;;1.00;0.75;;;;;11.49;76.96;99346.75;4901939;29;45380;-69
2023/03/09 03:47:41;;;;;;;;;1.00;1.00;;;;;11.68;77.48;99378.59;4901850;29;46107;-69
2023/03/09 03:52:53;;;;;;;;;2.00;0.50;;;;;11.52;77.49;99347.50;4901564;29;45300;-69
2023/03/09 03:55:28;;;;;;;;;2.00;1.00;;;;;11.54;77.75;99356.28;4903441;29;45548;-69
2023/03/09 03:57:56;;;;;;;;;3.00;1.00;;;;;11.58;77.60;99358.69;4904976;29;46589;-69
2023/03/09 04:00:24;;;;;;;;;1.00;1.00;;;;;11.48;77.60;99360.19;4905061;29;45349;-69
2023/03/09 04:02:49;;;;;;;;;0.75;0.75;;;;;11.68;77.42;99385.75;4905249;29;45360;-69
2023/03/09 04:05:18;;;;;;;;;4.00;3.00;;;;;11.63;77.54;99369.13;4905043;29;45576;-69
2023/03/09 04:07:53;;;;;;;;;3.75;1.75;;;;;11.82;77.54;99414.34;4887511;29;47292;-69
2023/03/09 04:10:18;;;;;;;;;0.50;0.50;;;;;11.73;77.62;99397.03;4905005;29;45321;-69
2023/03/09 04:12:49;;;;;;;;;1.00;0.00;;;;;11.59;77.46;99368.41;4887831;29;45672;-69
2023/03/09 04:15:14;;;;;;;;;2.25;2.00;;;;;11.65;77.34;99380.56;4904697;29;45610;-69
2023/03/09 04:17:42;;;;;;;;;2.50;1.00;;;;;11.75;78.02;99402.28;4904751;29;45426;-69
2023/03/09 04:20:11;;;;;;;;;3.00;1.75;;;;;11.76;77.79;99404.88;4902586;29;45573;-69
2023/03/09 04:22:45;;;;;;;;;1.00;1.00;;;;;11.92;77.75;99428.06;4885888;29;45362;-69
2023/03/09 04:25:10;;;;;;;;;2.50;1.00;;;;;11.60;77.36;99383.50;4888844;29;45454;-69
2023/03/09 04:27:41;;;;;;;;;2.00;1.00;;;;;11.75;77.53;99416.50;4904576;29;45841;-69
2023/03/09 04:30:14;;;;;;;;;1.00;0.00;;;;;11.56;77.48;99381.09;4887416;29;45359;-69
2023/03/09 04:32:39;;;;;;;;;2.75;1.00;;;;;11.47;77.46;99369.13;4887617;29;45433;-69
2023/03/09 04:35:09;;;;;;;;;1.75;0.25;;;;;11.71;77.44;99411.41;4917349;28;45779;-69
2023/03/09 04:37:34;;;;;;;;;2.00;2.00;;;;;11.70;77.46;99413.25;4887101;29;46357;-69
2023/03/09 04:40:03;;;;;;;;;1.00;1.00;;;;;11.89;77.69;99453.13;4904579;29;45387;-69
2023/03/09 04:42:30;;;;;;;;;2.75;1.00;;;;;11.79;77.59;99428.72;4887423;29;45499;-69
2023/03/09 04:44:56;;;;;;;;;1.00;1.00;;;;;11.73;77.74;99426.44;4919596;28;45541;-69
2023/03/09 04:47:24;;;;;;;;;3.25;2.00;;;;;11.69;77.98;99416.84;4905956;28;46986;-69
2023/03/09 04:49:59;;;;;;;;;0.50;0.50;;;;;11.87;78.29;99455.03;4923436;28;45472;-69
2023/03/09 04:52:24;;;;;;;;;3.75;0.25;;;;;11.70;77.78;99421.25;4906046;28;45715;-69
2023/03/09 04:54:50;;;;;;;;;1.75;0.50;;;;;11.84;77.69;99445.41;4923493;28;45402;-69
2023/03/09 04:57:26;;;;;;;;;;;;;;;;;;;;;
2023/03/09 04:59:55;;;;;;;;;1.75;1.75;;;;;11.97;77.69;99468.75;4922257;28;73001;-69
2023/03/09 05:02:28;;;;;;;;;2.00;1.00;;;;;11.92;77.75;99460.16;4906120;28;45594;-69
2023/03/09 05:04:57;;;;;;;;;2.50;1.00;;;;;11.73;77.74;99445.16;4923236;28;45509;-69
2023/03/09 05:07:33;;;;;;;;;4.00;2.00;;;;;11.99;77.87;99483.75;4921987;28;45561;-69
2023/03/09 05:10:03;;;;;;;;;2.50;2.00;;;;;12.02;77.58;99480.06;4905676;28;45912;-69
2023/03/09 05:12:31;;;;;;;;;1.00;1.00;;;;;11.79;77.65;99441.25;4923154;28;45446;-69
2023/03/09 05:15:06;;;;;;;;;3.00;2.00;;;;;11.69;77.61;99430.22;4905885;28;45996;-69
2023/03/09 05:17:44;;;;;;;;;;;;;;;;;;;;;
2023/03/09 05:20:11;;;;;;;;;2.00;1.00;;;;;11.67;77.62;99430.31;4919434;28;72830;-69
2023/03/09 05:22:39;;;;;;;;;2.25;1.00;;;;;11.85;77.87;99463.13;4886717;29;45497;-69
2023/03/09 05:25:09;;;;;;;;;0.75;0.50;;;;;11.83;77.76;99456.19;4883834;29;45708;-70
2023/03/09 05:27:37;;;;;;;;;7.00;2.25;;;;;11.84;77.96;99457.88;4867371;29;47164;-69
2023/03/09 05:30:13;;;;;;;;;;;;;;;;;;;;;
2023/03/09 05:32:41;;;;;;;;;2.75;1.50;;;;;12.06;78.09;99494.94;4883941;29;68700;-69
2023/03/09 05:35:10;;;;;;;;;3.75;1.25;;;;;11.88;78.16;99462.13;4867798;29;45519;-69
2023/03/09 05:37:35;;;;;;;;;0.75;0.00;;;;;12.04;77.88;99484.38;4867429;29;46029;-69
2023/03/09 05:40:02;;;;;;;;;4.00;2.00;;;;;11.87;77.65;99455.88;4867670;29;45531;-69
2023/03/09 05:42:30;;;;;;;;;4.50;1.00;;;;;11.67;77.74;99422.28;4884579;29;45374;-69
2023/03/09 05:45:05;;;;;;;;;2.00;2.00;;;;;11.74;78.03;99437.97;4882421;29;45807;-69
2023/03/09 05:47:34;;;;;;;;;1.50;1.00;;;;;11.89;77.72;99458.47;4903277;29;45357;-69
2023/03/09 05:50:02;;;;;;;;;3.00;0.75;;;;;11.82;77.81;99452.63;4886428;29;45424;-69
2023/03/09 05:52:32;;;;;;;;;1.25;1.25;;;;;11.91;78.05;99467.31;4886141;29;45491;-69
2023/03/09 05:55:00;;;;;;;;;0.25;0.25;;;;;11.95;78.26;99471.53;4886083;29;45363;-69
2023/03/09 05:57:26;;;;;;;;;1.75;1.50;;;;;12.02;77.82;99486.25;4903002;29;46942;-69
2023/03/09 05:59:52;;;;;;;;;5.00;3.00;;;;;11.76;78.08;99444.09;4903269;29;45435;-69
2023/03/09 06:02:24;;;;;;;;;3.25;1.00;;;;;12.12;78.24;99512.47;4886214;29;45507;-69
2023/03/09 06:04:51;;;;;;;;;2.00;2.00;;;;;11.87;78.23;99476.41;4903337;29;45407;-69
2023/03/09 06:07:19;;;;;;;;;2.25;1.00;;;;;11.98;78.06;99497.25;4902794;29;46153;-69
2023/03/09 06:09:57;;;;;;;;;;;;;;;;;;;;;
2023/03/09 06:12:36;;;;;;;;;3.00;1.00;;;;;12.02;78.45;99504.97;4902182;29;68983;-69
2023/03/09 06:15:12;;;;;;;;;1.00;1.00;;;;;11.96;78.34;99502.69;4903012;29;45433;-69
2023/03/09 06:17:39;;;;;;;;;2.00;1.00;;;;;11.76;78.19;99463.69;4902532;29;45535;-69
2023/03/09 06:20:14;;;;;;;;;1.75;1.75;;;;;11.61;78.34;99440.50;4900403;29;45424;-69
2023/03/09 06:22:44;;;;;;;;;1.75;1.75;;;;;11.80;77.81;99491.97;4867082;29;45341;-69
2023/03/09 06:25:10;;;;;;;;;3.50;3.00;;;;;11.68;78.25;99465.94;4866305;29;45495;-69
2023/03/09 06:27:35;;;;;;;;;1.75;0.25;;;;;11.79;78.93;99500.91;4883920;29;46427;-69
2023/03/09 06:30:01;;;;;;;;;4.50;1.00;;;;;11.95;78.70;99529.50;4883853;29;45613;-69
2023/03/09 06:32:27;;;;;;;;;1.75;1.50;;;;;11.85;78.58;99508.59;4884148;29;45481;-69
2023/03/09 06:34:55;;;;;;;;;2.50;2.50;;;;;11.81;78.37;99499.03;4909174;28;45438;-69
2023/03/09 06:37:25;;;;;;;;;4.75;1.75;;;;;11.77;78.77;99494.81;4883546;29;45437;-69
2023/03/09 06:39:53;;;;;;;;;4.00;3.00;;;;;11.94;78.75;99517.06;4883473;29;45394;-69
2023/03/09 06:42:18;;;;;;;;;1.00;1.00;;;;;11.96;78.60;99531.22;4866886;29;45402;-69
2023/03/09 06:44:46;;;;;;;;;3.75;2.50;;;;;12.05;78.83;99544.91;4897042;29;45401;-69
2023/03/09 06:47:22;;;;;;;;;3.75;2.00;;;;;11.76;78.51;99506.47;4902447;29;45599;-69
2023/03/09 06:49:47;;;;;;;;;1.00;1.00;;;;;11.93;78.88;99526.03;4902689;29;45544;-69
2023/03/09 06:52:15;;;;;;;;;3.25;1.50;;;;;12.14;78.79;99580.13;4902287;29;45396;-69
2023/03/09 06:54:45;;;;;;;;;4.25;1.00;;;;;12.13;78.65;99563.22;4885433;29;45470;-69
2023/03/09 06:57:11;;;;;;;;;1.75;1.50;;;;;12.07;78.48;99563.56;4902240;29;46609;-69
2023/03/09 07:00:10;;;;;;;;;;;;;;;;;;;;;
2023/03/09 07:02:27;;;;;;;;;5.00;2.75;;;;;11.76;78.85;99518.94;4897378;29;45544;-69
2023/03/09 07:05:08;;;;;;;;;;;;;;;;;;;;;
2023/03/09 07:07:39;;;;;;;;;7.00;3.00;;;;;11.99;78.73;99549.75;4901164;29;74700;-69
2023/03/09 07:10:07;;;;;;;;;6.50;3.00;;;;;12.07;78.71;99566.22;4883556;29;46856;-69
2023/03/09 07:12:46;;;;;;;;;5.00;2.25;;;;;11.84;78.67;99533.63;4883368;29;45409;-69
2023/03/09 07:15:14;;;;;;;;;3.25;2.00;;;;;12.05;79.03;99576.16;4883207;29;45457;-69
2023/03/09 07:17:42;;;;;;;;;3.75;2.00;;;;;12.23;78.76;99607.22;4865937;29;47681;-69
2023/03/09 07:20:12;;;;;;;;;4.75;3.00;;;;;12.00;79.09;99578.25;4885306;29;45546;-69
2023/03/09 07:22:47;;;;;;;;;4.25;3.00;;;;;12.18;78.75;99609.28;4902212;29;45449;-69
2023/03/09 07:25:13;;;;;;;;;2.75;1.00;;;;;12.13;78.71;99591.75;4905532;28;45583;-69
2023/03/09 07:27:52;;;;;;;;;2.00;2.00;;;;;12.18;78.64;99595.06;4921070;28;46001;-69
2023/03/09 07:30:35;;;;;;;;;;;;;;;;;;;;;
2023/03/09 07:33:14;;;;;;;;;4.75;2.50;;;;;12.22;78.51;99604.63;4926229;28;67251;-69
2023/03/09 07:36:11;;;;;;;;;2.00;1.25;;;;;12.26;78.70;99618.69;4904401;28;45456;-70
2023/03/09 07:38:37;;;;;;;;;7.25;3.50;;;;;11.87;78.62;99552.16;4905059;29;46805;-69
2023/03/09 07:41:09;;;;;;;;;4.25;2.00;;;;;12.22;78.78;99602.78;4905290;28;45375;-69
2023/03/09 07:43:43;;;;;;;;;6.00;2.00;;;;;12.04;78.70;99574.44;4892666;28;45522;-69
2023/03/09 07:46:23;;;;;;;;;3.75;1.75;;;;;12.08;78.80;99583.13;4924201;28;45280;-69
2023/03/09 07:48:59;;;;;;;;;4.50;1.50;;;;;12.14;78.66;99594.34;4924250;28;46294;-69
2023/03/09 07:51:37;;;;;;;;;4.75;2.00;;;;;12.10;78.66;99594.63;4924042;28;45307;-69
2023/03/09 07:54:14;;;;;;;;;3.50;2.00;;;;;12.30;78.53;99626.44;4906959;28;45471;-69
2023/03/09 07:56:53;;;;;;;;;;;;;;;;;;;;;
2023/03/09 07:59:19;;;;;;;;;3.25;2.00;;;;;12.00;78.69;99579.09;4923054;28;75103;-69
2023/03/09 08:01:45;;;;;;;;;1.75;1.75;;;;;12.09;78.44;99582.19;4923986;28;45716;-69
2023/03/09 08:04:20;;;;;;;;;6.50;3.00;;;;;12.25;78.53;99606.28;4906875;28;45515;-69
2023/03/09 08:06:58;;;;;;;;;;;;;;;;;;;;;
2023/03/09 08:09:26;;;;;;;;;2.50;2.00;;;;;12.08;78.61;99581.34;4922715;28;74788;-69
2023/03/09 08:12:00;;;;;;;;;3.75;2.00;;;;;12.19;78.63;99596.75;4906415;28;45534;-69
2023/03/09 08:14:28;;;;;;;;;6.00;2.00;;;;;12.50;78.47;99643.19;4923973;28;45666;-69
2023/03/09 08:17:04;;;;;;;;;;;;;;;;;;;;;
2023/03/09 08:19:33;;;;;;;;;5.25;3.75;;;;;12.40;78.59;99621.44;4916653;28;75916;-69
2023/03/09 08:22:12;;;;;;;;;4.00;3.00;;;;;12.51;78.57;99640.41;4906616;28;45766;-69
2023/03/09 08:24:48;;;;;;;;;6.75;3.25;;;;;12.49;78.29;99647.66;4904917;28;45414;-69
2023/03/09 08:27:20;;;;;;;;;6.00;3.50;;;;;12.56;77.92;99643.69;4904578;29;45715;-69
2023/03/09 08:29:50;;;;;;;;;3.50;1.00;;;;;12.29;78.28;99592.59;4904492;29;45958;-69
2023/03/09 08:32:16;;;;;;;;;4.50;2.75;;;;;12.64;78.15;99648.56;4887411;29;45422;-69
2023/03/09 08:34:54;;;;;;;;;6.00;3.25;;;;;12.50;78.82;99622.63;4912610;28;45344;-69
2023/03/09 08:37:32;;;;;;;;;;;;;;;;;;;;;
2023/03/09 08:40:01;;;;;;;;;5.75;2.25;;;;;12.49;78.11;99622.72;4903426;28;74143;-69
2023/03/09 08:42:34;;;;;;;;;7.50;4.75;;;;;12.55;77.90;99633.06;4903111;29;45497;-70
2023/03/09 08:45:19;;;;;;;;;8.75;3.50;;;;;12.54;78.30;99623.31;4902871;28;45437;-69
2023/03/09 08:47:49;;;;;;;;;5.25;3.00;;;;;12.59;77.81;99631.94;4923387;28;45320;-69
2023/03/09 08:50:17;;;;;;;;;2.00;2.00;;;;;12.70;78.18;99642.03;4923403;28;45711;-69
2023/03/09 08:52:43;;;;;;;;;5.00;2.75;;;;;12.53;78.40;99606.38;4905781;28;45721;-69
2023/03/09 08:55:31;;;;;;;;;2.75;2.75;;;;;12.65;78.19;99622.69;4906329;28;45492;-69
2023/03/09 08:58:14;;;;;;;;;;;;;;;;;;;;;
2023/03/09 09:00:53;;;;;;;;;;;;;;;;;;;;;
2023/03/09 09:03:24;;;;;;;;;5.25;3.75;;;;;12.89;78.28;99658.72;4922284;28;72940;-69
2023/03/09 09:06:01;;;;;;;;;;;;;;;;;;;;;
2023/03/09 09:08:40;;;;;;;;;;;;;;;;;;;;;
2023/03/09 09:11:25;;;;;;;;;4.25;3.25;;;;;12.81;77.83;99631.50;4922066;28;75088;-69
2023/03/09 09:13:55;;;;;;;;;6.00;4.25;;;;;12.85;77.50;99641.09;4905378;28;45557;-69
2023/03/09 09:16:21;;;;;;;;;4.00;3.00;;;;;12.87;77.69;99636.50;4905862;28;45354;-69
2023/03/09 09:18:55;;;;;;;;;4.75;3.75;;;;;12.89;77.48;99637.28;4922906;28;45555;-69
2023/03/09 09:21:30;;;;;;;;;;;;;;;;;;;;;
2023/03/09 09:23:56;;;;;;;;;5.50;3.50;;;;;12.92;77.24;99637.09;4902794;29;71936;-69
2023/03/09 09:26:25;;;;;;;;;9.25;4.00;;;;;12.93;77.42;99636.16;4886656;29;45444;-69
2023/03/09 09:29:01;;;;;;;;;6.00;5.00;;;;;13.11;77.36;99652.06;4903610;28;45395;-69
2023/03/09 09:31:43;;;;;;;;;;;;;;;;;;;;;
2023/03/09 09:34:17;;;;;;;;;6.00;3.25;;;;;13.08;77.13;99634.38;4914482;28;73320;-69
2023/03/09 09:36:45;;;;;;;;;7.00;4.75;;;;;13.05;77.39;99614.94;4922679;28;45335;-69
2023/03/09 09:39:26;;;;;;;;;;;;;;;;;;;;;
2023/03/09 09:42:25;;;;;;;;;4.25;2.50;;;;;13.18;77.08;99634.69;4921578;28;75083;-69
2023/03/09 09:44:59;;;;;;;;;2.75;2.25;;;;;13.23;77.01;99627.22;4907641;28;45613;-69
2023/03/09 09:47:33;;;;;;;;;3.00;1.50;;;;;13.22;77.00;99622.81;4886395;29;45474;-69
2023/03/09 09:50:15;;;;;;;;;;;;;;;;;;;;;
2023/03/09 09:53:33;;;;;;;;;4.00;3.50;;;;;13.42;77.25;99643.06;4901695;29;75314;-69
2023/03/09 09:56:15;;;;;;;;;5.75;4.25;;;;;13.34;76.40;99613.19;4792471;29;45383;-69
2023/03/09 09:59:02;;;;;;;;;;;;;;;;;;;;;
2023/03/09 10:02:02;;;;;;;;;;;;;;;;;;;;;
2023/03/09 10:04:34;;;;;;;;;5.00;3.00;;;;;13.43;75.88;99606.38;4902332;29;75135;-69
2023/03/09 10:07:31;;;;;;;;;3.00;3.00;;;;;13.42;75.79;99607.38;4885835;28;45448;-69
2023/03/09 10:10:02;;;;;;;;;3.25;1.75;;;;;13.42;75.63;99610.91;4876840;29;45483;-69
2023/03/09 10:12:45;;;;;;;;;;;;;;;;;;;;;
2023/03/09 10:15:37;;;;;;;;;6.50;3.50;;;;;13.47;75.37;99600.75;4902005;29;75485;-69
2023/03/09 10:18:16;;;;;;;;;9.50;4.75;;;;;13.47;75.55;99599.88;4885898;29;45486;-69
2023/03/09 10:20:44;;;;;;;;;11.50;4.25;;;;;13.74;75.24;99644.69;4909735;28;45427;-69
2023/03/09 10:23:36;;;;;;;;;6.00;3.75;;;;;13.57;75.16;99618.94;4904575;28;45573;-69
2023/03/09 10:26:23;;;;;;;;;;;;;;;;;;;;;
2023/03/09 10:29:19;;;;;;;;;3.75;2.75;;;;;13.75;74.77;99631.19;4921060;28;72973;-69
2023/03/09 10:32:09;;;;;;;;;;;;;;;;;;;;;
2023/03/09 10:35:02;;;;;;;;;5.25;2.00;;;;;13.53;74.24;99588.75;4931060;28;72851;-69
2023/03/09 10:37:47;;;;;;;;;;;;;;;;;;;;;
2023/03/09 10:40:29;;;;;;;;;7.50;5.75;;;;;13.67;73.46;99596.81;4901852;29;71793;-69
2023/03/09 10:43:27;;;;;;;;;;;;;;;;;;;;;
2023/03/09 10:46:12;;;;;;;;;9.50;5.75;;;;;13.77;73.67;99597.09;4893428;29;72953;-69
2023/03/09 10:48:37;;;;;;;;;9.75;4.25;;;;;13.77;73.96;99582.81;4902481;29;45625;-69
2023/03/09 10:51:38;;;;;;;;;8.00;4.50;;;;;13.75;73.19;99582.03;4902210;29;45484;-69
2023/03/09 10:54:30;;;;;;;;;;;;;;;;;;;;;
2023/03/09 10:56:58;;;;;;;;;4.50;3.00;;;;;13.82;73.03;99583.38;4901348;29;70608;-69
2023/03/09 10:59:58;;;;;;;;;;;;;;;;;;;;;
2023/03/09 11:03:07;;;;;;;;;;;;;;;;;;;;;
2023/03/09 11:05:35;;;;;;;;;9.50;3.00;;;;;13.90;72.74;99570.34;4900710;28;67491;-69
2023/03/09 11:08:12;;;;;;;;;;;;;;;;;;;;;
2023/03/09 11:10:53;;;;;;;;;;;;;;;;;;;;;
2023/03/09 11:13:24;;;;;;;;;3.50;3.00;;;;;14.07;71.83;99583.50;4901157;29;73172;-69
2023/03/09 11:16:17;;;;;;;;;5.50;4.00;;;;;14.23;72.12;99604.84;4902512;29;45427;-69
2023/03/09 11:18:45;;;;;;;;;4.25;3.75;;;;;14.18;72.05;99595.34;4902180;29;45464;-69
2023/03/09 11:21:21;;;;;;;;;6.00;4.50;;;;;14.20;72.12;99599.66;4912220;28;46194;-69
2023/03/09 11:24:03;;;;;;;;;13.00;6.50;;;;;14.35;71.62;99615.72;4902223;29;45322;-69
2023/03/09 11:26:46;;;;;;;;;;;;;;;;;;;;;
2023/03/09 11:29:36;;;;;;;;;9.25;5.50;;;;;14.20;71.10;99582.69;4900905;29;71390;-69
2023/03/09 11:32:06;;;;;;;;;35.75;32.75;;;;;14.30;71.16;99599.06;4882706;29;46681;-69
2023/03/09 11:34:35;;;;;;;;;7.25;4.25;;;;;14.37;71.37;99611.13;4897331;29;45622;-69
2023/03/09 11:37:19;;;;;;;;;6.00;5.00;;;;;14.26;71.01;99585.81;4902052;29;45352;-69
2023/03/09 11:39:48;;;;;;;;;6.50;4.00;;;;;14.45;70.94;99609.66;4884869;29;45515;-70
2023/03/09 11:42:48;;;;;;;;;6.50;3.00;;;;;14.27;70.36;99570.59;4884709;29;46303;-70
2023/03/09 11:45:41;;;;;;;;;10.00;4.50;;;;;14.50;70.89;99605.78;4900060;29;45487;-69
2023/03/09 11:48:34;;;;;;;;;7.00;5.50;;;;;14.30;70.18;99561.47;4902206;29;45529;-69
2023/03/09 11:51:13;;;;;;;;;10.25;5.00;;;;;14.34;69.91;99561.16;4884452;29;45545;-69
2023/03/09 11:53:55;;;;;;;;;8.75;4.50;;;;;14.53;70.80;99579.56;4884539;29;47155;-69
2023/03/09 11:57:15;;;;;;;;;6.25;4.25;;;;;14.48;70.54;99565.59;4901900;29;45516;-69
2023/03/09 12:00:37;;;;;;;;;6.50;4.75;;;;;14.67;69.73;99580.50;4898777;29;45344;-69
2023/03/09 12:03:17;;;;;;;;;4.75;0.50;;;;;14.57;69.26;99556.94;4889456;29;45801;-69
2023/03/09 12:05:58;;;;;;;;;10.75;6.00;;;;;14.61;69.98;99545.03;4901499;29;46421;-69
2023/03/09 12:08:49;;;;;;;;;4.00;2.75;;;;;14.78;69.17;99565.41;4884361;29;45710;-69
2023/03/09 12:11:26;;;;;;;;;9.00;4.00;;;;;14.82;68.44;99574.97;4901969;29;45441;-69
2023/03/09 12:14:07;;;;;;;;;7.25;2.25;;;;;14.77;68.07;99558.28;4884228;29;45674;-69
2023/03/09 12:16:50;;;;;;;;;;;;;;;;;;;;;
2023/03/09 12:19:22;;;;;;;;;6.75;4.75;;;;;14.93;68.41;99576.88;4903911;29;71264;-69
2023/03/09 12:22:09;;;;;;;;;;;;;;;;;;;;;
2023/03/09 12:25:26;;;;;;;;;4.75;3.50;;;;;14.95;67.95;99566.03;4884911;29;72941;-69
2023/03/09 12:28:10;;;;;;;;;3.75;3.00;;;;;14.98;68.50;99565.84;4863280;29;47552;-69
2023/03/09 12:30:53;;;;;;;;;6.75;5.50;;;;;14.93;68.57;99541.09;4885832;29;45318;-69
2023/03/09 12:33:59;;;;;;;;;;;;;;;;;;;;;
2023/03/09 12:36:32;;;;;;;;;5.25;3.75;;;;;15.02;68.21;99537.78;4903227;29;72691;-69
2023/03/09 12:39:45;;;;;;;;;5.00;3.00;;;;;15.03;68.19;99536.81;4886830;29;46923;-69
2023/03/09 12:42:16;;;;;;;;;8.75;5.00;;;;;15.00;68.08;99528.97;4879520;29;45728;-69
2023/03/09 12:45:21;;;;;;;;;5.25;3.75;;;;;14.85;68.20;99497.78;4904466;29;45562;-69
2023/03/09 12:48:17;;;;;;;;;;;;;;;;;;;;;
2023/03/09 12:50:43;;;;;;;;;5.00;3.50;;;;;15.08;68.46;99515.00;4891679;29;75362;-69
2023/03/09 12:53:19;;;;;;;;;7.25;2.00;;;;;15.10;68.26;99508.56;4903998;29;45276;-69
2023/03/09 12:55:52;;;;;;;;;5.00;3.25;;;;;14.89;68.27;99478.69;4887208;29;45523;-69
2023/03/09 12:58:18;;;;;;;;;5.50;3.75;;;;;15.15;68.34;99505.50;4903928;29;45372;-69
2023/03/09 13:01:42;;;;;;;;;;;;;;;;;;;;;
2023/03/09 13:04:41;;;;;;;;;4.25;4.25;;;;;15.07;68.51;99489.94;4889639;29;71333;-69
2023/03/09 13:07:25;;;;;;;;;4.25;2.00;;;;;15.02;68.46;99462.56;4886794;29;45487;-69
2023/03/09 13:10:03;;;;;;;;;;;;;;;;;;;;;